createdAt,value
2023-01-25T10:33:56.679Z,4.78
2023-01-25T10:37:12.673Z,5.10
2023-01-25T10:40:24.185Z,5.45
2023-01-25T10:43:30.806Z,5.76
2023-01-25T10:46:37.869Z,6.06
2023-01-25T10:49:48.720Z,6.32
2023-01-25T10:53:01.514Z,6.52
2023-01-25T10:56:23.932Z,6.70
2023-01-25T10:59:31.410Z,6.83
2023-01-25T11:02:46.040Z,6.92
2023-01-25T11:05:56.745Z,6.94
2023-01-25T11:09:03.335Z,6.93
2023-01-25T11:12:19.839Z,6.92
2023-01-25T11:15:29.178Z,6.86
2023-01-25T11:18:36.468Z,6.85
2023-01-25T11:21:55.032Z,6.90
2023-01-25T11:25:26.486Z,6.98
2023-01-25T11:28:32.437Z,7.10
2023-01-25T11:31:42.027Z,7.20
2023-01-25T11:34:48.609Z,7.29
2023-01-25T11:38:13.930Z,7.39
2023-01-25T11:41:28.005Z,7.43
2023-01-25T11:45:03.479Z,7.44
2023-01-25T11:48:26.777Z,7.46
2023-01-25T11:51:41.428Z,7.45
2023-01-25T11:54:54.900Z,7.43
2023-01-25T11:58:13.703Z,7.36
2023-01-25T12:01:28.157Z,7.30
2023-01-25T12:05:02.279Z,7.26
2023-01-25T12:08:21.635Z,7.16
2023-01-25T12:11:42.133Z,7.12
2023-01-25T12:15:08.489Z,7.15
2023-01-25T12:18:41.218Z,7.21
2023-01-25T12:22:03.819Z,7.25
2023-01-25T12:25:22.797Z,7.23
2023-01-25T12:28:35.127Z,7.19
2023-01-25T12:31:51.575Z,7.15
2023-01-25T12:35:05.531Z,7.14
2023-01-25T12:38:17.233Z,7.15
2023-01-25T12:41:32.610Z,7.13
2023-01-25T12:44:43.201Z,7.11
2023-01-25T12:47:53.642Z,7.12
2023-01-25T12:51:01.041Z,7.12
2023-01-25T12:54:14.152Z,7.10
2023-01-25T12:57:30.451Z,7.11
2023-01-25T13:00:45.830Z,7.04
2023-01-25T13:04:04.807Z,6.94
2023-01-25T13:07:19.232Z,6.84
2023-01-25T13:10:30.791Z,6.77
2023-01-25T13:13:37.143Z,6.76
2023-01-25T13:16:43.345Z,6.72
2023-01-25T13:19:50.525Z,6.69
2023-01-25T13:23:01.466Z,6.68
2023-01-25T13:26:48.615Z,6.67
2023-01-25T13:30:03.454Z,6.62
2023-01-25T13:33:09.567Z,6.59
2023-01-25T13:36:47.503Z,6.55
2023-01-25T13:39:55.742Z,6.40
2023-01-25T13:43:07.675Z,6.27
2023-01-25T13:46:17.198Z,6.22
2023-01-25T13:49:29.659Z,6.22
2023-01-25T13:52:35.930Z,6.26
2023-01-25T13:55:44.316Z,6.33
2023-01-25T13:58:50.596Z,6.41
2023-01-25T14:01:55.044Z,6.46
2023-01-25T14:05:02.103Z,6.47
2023-01-25T14:08:14.268Z,6.50
2023-01-25T14:11:23.936Z,6.54
2023-01-25T14:14:33.141Z,6.55
2023-01-25T14:17:39.429Z,6.59
2023-01-25T14:20:44.361Z,6.60
2023-01-25T14:23:52.359Z,6.58
2023-01-25T14:26:58.895Z,6.61
2023-01-25T14:30:07.474Z,6.61
2023-01-25T14:33:23.315Z,6.64
2023-01-25T14:36:34.568Z,6.70
2023-01-25T14:39:40.856Z,6.75
2023-01-25T14:42:47.191Z,6.76
2023-01-25T14:45:51.914Z,6.71
2023-01-25T14:49:18.037Z,6.54
2023-01-25T14:52:28.719Z,6.49
2023-01-25T14:55:34.928Z,6.48
2023-01-25T14:58:45.316Z,6.46
2023-01-25T15:01:55.828Z,6.44
2023-01-25T15:05:14.944Z,6.44
2023-01-25T15:08:31.333Z,6.45
2023-01-25T15:11:45.537Z,6.47
2023-01-25T15:14:53.546Z,6.48
2023-01-25T15:18:00.266Z,6.49
2023-01-25T15:21:06.728Z,6.50
2023-01-25T15:24:15.252Z,6.52
2023-01-25T15:27:25.216Z,6.53
2023-01-25T15:30:31.550Z,6.52
2023-01-25T15:33:36.216Z,6.50
2023-01-25T15:36:42.181Z,6.49
2023-01-25T15:39:48.368Z,6.52
2023-01-25T15:42:55.697Z,6.54
2023-01-25T15:46:02.765Z,6.54
2023-01-25T15:49:10.093Z,6.50
2023-01-25T15:52:16.564Z,6.44
2023-01-25T15:55:23.029Z,6.34
2023-01-25T15:58:31.861Z,6.22
2023-01-25T16:01:38.173Z,6.11
2023-01-25T16:04:43.437Z,5.99
2023-01-25T16:07:49.834Z,5.91
2023-01-25T16:10:56.110Z,5.89
2023-01-25T16:14:00.599Z,5.89
2023-01-25T16:17:07.667Z,5.88
2023-01-25T16:20:21.062Z,5.92
2023-01-25T16:23:27.252Z,5.91
2023-01-25T16:26:33.808Z,5.87
2023-01-25T16:29:39.843Z,5.88
2023-01-25T16:32:46.752Z,5.90
2023-01-25T16:36:12.361Z,5.91
2023-01-25T16:39:20.718Z,5.96
2023-01-25T16:42:27.056Z,6.00
2023-01-25T16:45:32.114Z,6.04
2023-01-25T16:48:38.371Z,6.07
2023-01-25T16:51:42.806Z,6.13
2023-01-25T16:54:49.046Z,6.15
2023-01-25T16:57:53.418Z,6.20
2023-01-25T17:00:59.619Z,6.21
2023-01-25T17:04:05.967Z,6.27
2023-01-25T17:07:12.277Z,6.29
2023-01-25T17:10:19.393Z,6.27
2023-01-25T17:13:25.809Z,6.30
2023-01-25T17:16:33.603Z,6.32
2023-01-25T17:19:39.885Z,6.34
2023-01-25T17:22:49.722Z,6.36
2023-01-25T17:25:56.550Z,6.34
2023-01-25T17:29:03.495Z,6.37
2023-01-25T17:32:09.607Z,6.39
2023-01-25T17:35:15.952Z,6.38
2023-01-25T17:38:20.506Z,6.36
2023-01-25T17:41:26.700Z,6.27
2023-01-25T17:44:33.128Z,6.25
2023-01-25T17:47:39.448Z,6.23
2023-01-25T17:50:44.060Z,6.25
2023-01-25T17:53:50.434Z,6.21
2023-01-25T17:56:56.738Z,6.16
2023-01-25T18:00:03.287Z,6.11
2023-01-25T18:03:10.052Z,6.08
2023-01-25T18:06:19.116Z,6.05
2023-01-25T18:09:25.890Z,6.04
2023-01-25T18:12:32.129Z,6.02
2023-01-25T18:15:38.369Z,6.01
2023-01-25T18:18:43.621Z,6.02
2023-01-25T18:21:49.898Z,6.02
2023-01-25T18:24:54.446Z,6.07
2023-01-25T18:28:00.728Z,6.08
2023-01-25T18:31:06.342Z,6.08
2023-01-25T18:34:12.500Z,6.01
2023-01-25T18:37:20.477Z,6.01
2023-01-25T18:40:27.084Z,6.02
2023-01-25T18:43:33.557Z,6.00
2023-01-25T18:46:40.739Z,5.90
2023-01-25T18:49:47.371Z,5.82
2023-01-25T18:52:54.349Z,5.77
2023-01-25T18:56:07.248Z,5.68
2023-01-25T18:59:13.532Z,5.66
2023-01-25T19:02:18.328Z,5.65
2023-01-25T19:05:24.296Z,5.66
2023-01-25T19:08:32.502Z,5.74
2023-01-25T19:11:38.843Z,5.74
2023-01-25T19:14:43.401Z,5.74
2023-01-25T19:17:49.622Z,5.75
2023-01-25T19:20:55.608Z,5.85
2023-01-25T19:24:02.142Z,5.92
2023-01-25T19:27:08.443Z,5.99
2023-01-25T19:30:13.999Z,6.07
2023-01-25T19:33:20.227Z,6.11
2023-01-25T19:36:26.720Z,6.20
2023-01-25T19:39:32.987Z,6.26
2023-01-25T19:42:39.269Z,6.30
2023-01-25T19:45:43.682Z,6.32
2023-01-25T19:48:51.808Z,6.33
2023-01-25T19:51:58.013Z,6.37
2023-01-25T19:55:04.387Z,6.40
2023-01-25T19:58:09.883Z,6.42
2023-01-25T20:01:17.369Z,6.37
2023-01-25T20:04:25.135Z,6.30
2023-01-25T20:07:32.517Z,6.26
2023-01-25T20:10:38.782Z,6.25
2023-01-25T20:13:43.535Z,6.24
2023-01-25T20:16:52.644Z,6.20
2023-01-25T20:19:58.986Z,6.24
2023-01-25T20:23:03.286Z,6.28
2023-01-25T20:26:13.789Z,6.28
2023-01-25T20:29:21.604Z,6.24
2023-01-25T20:32:33.138Z,6.15
2023-01-25T20:35:39.604Z,6.10
2023-01-25T20:38:46.385Z,6.07
2023-01-25T20:41:53.765Z,6.02
2023-01-25T20:44:59.967Z,5.91
2023-01-25T20:48:06.611Z,5.82
2023-01-25T20:51:14.630Z,5.75
2023-01-25T20:54:21.789Z,5.73
2023-01-25T20:57:27.768Z,5.72
2023-01-25T21:00:34.063Z,5.71
2023-01-25T21:03:38.580Z,5.70
2023-01-25T21:06:44.817Z,5.68
2023-01-25T21:09:51.069Z,5.65
2023-01-25T21:12:55.617Z,5.54
2023-01-25T21:16:03.615Z,5.38
2023-01-25T21:19:10.008Z,5.35
2023-01-25T21:22:14.643Z,5.32
2023-01-25T21:25:20.830Z,5.29
2023-01-25T21:28:27.260Z,5.31
2023-01-25T21:31:36.079Z,5.31
2023-01-25T21:34:42.564Z,5.25
2023-01-25T21:37:50.397Z,5.16
2023-01-25T21:41:03.006Z,5.06
2023-01-25T21:44:26.960Z,5.07
2023-01-25T21:47:34.043Z,5.12
2023-01-25T21:50:59.151Z,5.17
2023-01-25T21:54:05.504Z,5.23
2023-01-25T21:57:11.696Z,5.25
2023-01-25T22:00:20.519Z,5.23
2023-01-25T22:03:26.900Z,5.22
2023-01-25T22:06:31.504Z,5.13
2023-01-25T22:09:37.770Z,5.01
2023-01-25T22:12:42.324Z,5.05
2023-01-25T22:15:48.582Z,5.07
2023-01-25T22:18:53.170Z,5.17
2023-01-25T22:21:59.217Z,5.23
2023-01-25T22:25:05.731Z,5.28
2023-01-25T22:28:17.317Z,5.22
2023-01-25T22:31:25.088Z,5.17
2023-01-25T22:34:31.512Z,5.03
2023-01-25T22:37:38.167Z,4.87
2023-01-25T22:40:44.425Z,4.72
2023-01-25T22:43:48.703Z,4.66
2023-01-25T22:46:55.024Z,4.58
2023-01-25T22:49:59.573Z,4.55
2023-01-25T22:53:05.822Z,4.52
2023-01-25T22:56:12.031Z,4.55
2023-01-25T22:59:19.414Z,4.56
2023-01-25T23:02:25.546Z,4.61
2023-01-25T23:05:32.076Z,4.70
2023-01-25T23:08:40.267Z,4.80
2023-01-25T23:11:46.233Z,4.90
2023-01-25T23:14:55.298Z,4.98
2023-01-25T23:18:18.972Z,5.05
2023-01-25T23:21:27.362Z,5.11
2023-01-25T23:24:33.700Z,5.17
2023-01-25T23:27:38.444Z,5.23
2023-01-25T23:30:44.610Z,5.25
2023-01-25T23:33:52.232Z,5.30
2023-01-25T23:36:58.539Z,5.33
2023-01-25T23:40:03.122Z,5.37
2023-01-25T23:43:09.385Z,5.35
2023-01-25T23:46:15.461Z,5.35
2023-01-25T23:49:21.732Z,5.27
2023-01-25T23:52:28.879Z,5.15
2023-01-25T23:55:35.198Z,4.54
2023-01-25T23:58:40.574Z,3.93
